createdAt,value
2019-05-01T00:02:23.565Z,8.25
2019-05-01T00:05:29.158Z,8.19
2019-05-01T00:08:30.477Z,8.31
2019-05-01T00:11:31.938Z,8.00
2019-05-01T00:14:33.303Z,8.13
2019-05-01T00:17:34.988Z,8.13
2019-05-01T00:20:36.532Z,8.13
2019-05-01T00:23:37.936Z,8.06
2019-05-01T00:26:39.367Z,7.94
2019-05-01T00:29:40.793Z,7.81
2019-05-01T00:32:42.177Z,7.75
2019-05-01T00:35:43.602Z,8.00
2019-05-01T00:38:44.997Z,8.13
2019-05-01T00:41:46.436Z,8.13
2019-05-01T00:44:47.746Z,8.00
2019-05-01T00:47:49.109Z,8.06
2019-05-01T00:50:50.525Z,8.06
2019-05-01T00:53:51.895Z,8.06
2019-05-01T00:57:02.284Z,7.75
2019-05-01T01:00:28.981Z,7.56
2019-05-01T01:03:30.399Z,7.44
2019-05-01T01:06:31.752Z,7.69
2019-05-01T01:09:33.178Z,7.44
2019-05-01T01:12:34.595Z,7.50
2019-05-01T01:15:37.113Z,7.37
2019-05-01T01:18:38.493Z,7.37
2019-05-01T01:21:39.828Z,7.50
2019-05-01T01:24:41.145Z,7.56
2019-05-01T01:27:42.495Z,7.69
2019-05-01T01:30:55.659Z,7.44
2019-05-01T01:33:48.419Z,7.25
2019-05-01T01:36:49.784Z,7.19
2019-05-01T01:39:51.204Z,7.37
2019-05-01T01:42:54.465Z,7.06
2019-05-01T01:45:57.051Z,7.00
2019-05-01T01:48:58.467Z,7.12
2019-05-01T01:51:59.964Z,7.44
2019-05-01T01:55:01.293Z,7.37
2019-05-01T01:58:03.016Z,7.12
2019-05-01T02:01:23.610Z,7.00
2019-05-01T02:04:47.023Z,6.81
2019-05-01T02:07:48.653Z,6.87
2019-05-01T02:10:49.969Z,7.06
2019-05-01T02:13:55.141Z,7.00
2019-05-01T02:16:56.504Z,7.06
2019-05-01T02:19:57.817Z,7.25
2019-05-01T02:22:59.190Z,7.19
2019-05-01T02:26:02.488Z,6.94
2019-05-01T02:29:25.555Z,6.81
2019-05-01T02:32:29.704Z,7.12
2019-05-01T02:35:32.123Z,6.94
2019-05-01T02:38:35.987Z,7.25
2019-05-01T02:41:41.608Z,6.94
2019-05-01T02:44:48.403Z,7.12
2019-05-01T02:47:50.250Z,7.06
2019-05-01T02:50:54.849Z,7.12
2019-05-01T02:53:57.065Z,7.06
2019-05-01T02:57:04.316Z,6.87
2019-05-01T03:00:06.734Z,6.87
2019-05-01T03:03:08.136Z,6.94
2019-05-01T03:06:09.444Z,6.81
2019-05-01T03:09:10.832Z,6.81
2019-05-01T03:12:13.509Z,6.87
2019-05-01T03:15:15.160Z,6.81
2019-05-01T03:18:25.458Z,6.81
2019-05-01T03:21:44.133Z,6.75
2019-05-01T03:24:45.809Z,6.62
2019-05-01T03:27:47.229Z,6.56
2019-05-01T03:30:48.880Z,6.50
2019-05-01T03:33:51.312Z,6.56
2019-05-01T03:36:52.597Z,6.44
2019-05-01T03:39:55.201Z,6.50
2019-05-01T03:42:57.136Z,6.12
2019-05-01T03:45:58.697Z,6.37
2019-05-01T03:49:00.081Z,6.37
2019-05-01T03:52:01.602Z,6.12
2019-05-01T03:55:03.136Z,6.12
2019-05-01T03:58:05.280Z,6.37
2019-05-01T04:01:14.470Z,6.37
2019-05-01T04:04:23.944Z,6.19
2019-05-01T04:07:25.391Z,6.12
2019-05-01T04:10:26.813Z,6.19
2019-05-01T04:13:28.179Z,6.12
2019-05-01T04:16:30.477Z,5.87
2019-05-01T04:19:31.928Z,5.94
2019-05-01T04:22:33.333Z,5.81
2019-05-01T04:25:34.786Z,5.94
2019-05-01T04:29:07.376Z,6.00
2019-05-01T04:32:23.755Z,6.06
2019-05-01T04:35:43.279Z,6.19
2019-05-01T04:38:44.846Z,6.31
2019-05-01T04:41:46.165Z,6.25
2019-05-01T04:44:47.498Z,6.19
2019-05-01T04:47:48.984Z,6.37
2019-05-01T04:50:50.346Z,6.37
2019-05-01T04:53:52.458Z,6.19
2019-05-01T04:56:54.344Z,6.37
2019-05-01T04:59:55.685Z,6.37
2019-05-01T05:03:05.380Z,6.44
2019-05-01T05:06:08.259Z,6.37
2019-05-01T05:09:09.695Z,6.50
2019-05-01T05:12:17.719Z,6.62
2019-05-01T05:15:50.683Z,6.69
2019-05-01T05:18:52.274Z,6.75
2019-05-01T05:21:53.815Z,6.87
2019-05-01T05:24:55.673Z,6.75
2019-05-01T05:27:58.509Z,7.00
2019-05-01T05:31:00.370Z,7.00
2019-05-01T05:34:03.827Z,7.12
2019-05-01T05:37:16.141Z,7.00
2019-05-01T05:40:19.636Z,7.00
2019-05-01T05:43:21.377Z,7.06
2019-05-01T05:46:22.711Z,7.12
2019-05-01T05:49:24.525Z,7.37
2019-05-01T05:52:36.545Z,7.56
2019-05-01T05:55:52.649Z,7.62
2019-05-01T05:58:58.661Z,7.69
2019-05-01T06:02:10.755Z,7.75
2019-05-01T06:05:26.355Z,7.87
2019-05-01T06:08:31.094Z,7.94
2019-05-01T06:12:05.004Z,8.13
2019-05-01T06:15:22.325Z,8.25
2019-05-01T06:18:49.024Z,8.38
2019-05-01T06:22:11.701Z,8.50
2019-05-01T06:25:25.071Z,8.63
2019-05-01T06:28:26.571Z,8.75
2019-05-01T06:31:28.893Z,8.81
2019-05-01T06:34:30.287Z,8.88
2019-05-01T06:38:02.320Z,9.00
2019-05-01T06:41:04.962Z,9.06
2019-05-01T06:44:12.359Z,9.25
2019-05-01T06:47:31.929Z,9.50
2019-05-01T06:50:41.551Z,9.69
2019-05-01T06:53:41.537Z,9.81
2019-05-01T06:56:43.747Z,9.94
2019-05-01T06:59:45.982Z,10.13
2019-05-01T07:02:50.123Z,10.31
2019-05-01T07:05:54.530Z,10.31
2019-05-01T07:08:56.023Z,10.44
2019-05-01T07:11:58.896Z,10.63
2019-05-01T07:15:00.882Z,10.88
2019-05-01T07:18:02.888Z,11.12
2019-05-01T07:21:04.346Z,11.44
2019-05-01T07:24:06.025Z,11.50
2019-05-01T07:27:07.379Z,11.56
2019-05-01T07:30:25.287Z,12.00
2019-05-01T07:33:26.669Z,11.94
2019-05-01T07:36:28.283Z,12.06
2019-05-01T07:39:32.662Z,12.56
2019-05-01T07:42:34.796Z,12.56
2019-05-01T07:46:02.380Z,12.75
2019-05-01T07:49:04.272Z,12.94
2019-05-01T07:52:05.636Z,12.81
2019-05-01T07:55:12.992Z,13.06
2019-05-01T07:58:15.838Z,13.38
2019-05-01T08:01:26.499Z,13.25
2019-05-01T08:04:35.982Z,13.88
2019-05-01T08:07:32.305Z,13.50
2019-05-01T08:10:34.621Z,13.88
2019-05-01T08:13:36.340Z,14.00
2019-05-01T08:16:42.077Z,14.44
2019-05-01T08:19:47.113Z,14.50
2019-05-01T08:22:48.510Z,14.13
2019-05-01T08:25:49.929Z,13.88
2019-05-01T08:29:09.104Z,14.44
2019-05-01T08:32:33.809Z,15.06
2019-05-01T08:35:36.544Z,15.69
2019-05-01T08:38:37.385Z,15.56
2019-05-01T08:41:38.747Z,15.88
2019-05-01T08:44:53.219Z,16.00
2019-05-01T08:48:03.053Z,16.69
2019-05-01T08:51:04.438Z,16.69
2019-05-01T08:54:06.911Z,16.31
2019-05-01T08:57:08.284Z,16.75
2019-05-01T09:00:12.500Z,16.62
2019-05-01T09:03:18.599Z,17.25
2019-05-01T09:06:17.006Z,17.31
2019-05-01T09:09:18.395Z,17.25
2019-05-01T09:12:19.789Z,17.12
2019-05-01T09:15:21.193Z,17.25
2019-05-01T09:18:22.579Z,17.44
2019-05-01T09:21:23.961Z,17.31
2019-05-01T09:24:27.865Z,17.19
2019-05-01T09:27:36.683Z,17.81
2019-05-01T09:30:43.008Z,18.50
2019-05-01T09:33:44.419Z,18.44
2019-05-01T09:36:45.749Z,18.37
2019-05-01T09:39:47.563Z,18.37
2019-05-01T09:42:48.933Z,18.44
2019-05-01T09:45:50.920Z,18.69
2019-05-01T09:48:53.455Z,18.62
2019-05-01T09:52:32.026Z,19.37
2019-05-01T09:55:47.362Z,19.50
2019-05-01T09:58:48.734Z,19.44
2019-05-01T10:01:50.126Z,19.87
2019-05-01T10:04:51.554Z,19.37
2019-05-01T10:07:52.950Z,18.87
2019-05-01T10:10:54.341Z,19.37
2019-05-01T10:13:58.419Z,19.94
2019-05-01T10:16:58.845Z,19.62
2019-05-01T10:20:00.201Z,19.44
2019-05-01T10:23:01.628Z,19.81
2019-05-01T10:26:05.125Z,20.31
2019-05-01T10:29:26.010Z,19.81
2019-05-01T10:32:39.127Z,19.87
2019-05-01T10:36:01.205Z,20.12
2019-05-01T10:39:05.767Z,20.62
2019-05-01T10:42:07.697Z,20.12
2019-05-01T10:45:09.105Z,20.37
2019-05-01T10:48:10.486Z,20.88
2019-05-01T10:51:11.842Z,20.69
2019-05-01T10:54:13.234Z,20.69
2019-05-01T10:57:14.574Z,21.00
2019-05-01T11:00:16.236Z,20.81
2019-05-01T11:03:17.667Z,21.12
2019-05-01T11:06:19.020Z,21.19
2019-05-01T11:09:20.396Z,20.88
2019-05-01T11:12:21.752Z,20.50
2019-05-01T11:15:23.120Z,20.75
2019-05-01T11:18:24.556Z,21.25
2019-05-01T11:21:26.008Z,21.06
2019-05-01T11:24:27.386Z,21.19
2019-05-01T11:27:28.748Z,21.25
2019-05-01T11:30:30.167Z,20.94
2019-05-01T11:33:57.497Z,20.37
2019-05-01T11:37:16.964Z,20.31
2019-05-01T11:40:39.546Z,21.12
2019-05-01T11:43:40.899Z,21.69
2019-05-01T11:46:42.290Z,21.25
2019-05-01T11:49:43.648Z,21.12
2019-05-01T11:52:45.049Z,21.37
2019-05-01T11:55:46.429Z,21.31
2019-05-01T11:58:47.793Z,21.25
2019-05-01T12:01:49.169Z,21.37
2019-05-01T12:04:50.543Z,21.62
2019-05-01T12:07:51.926Z,21.69
2019-05-01T12:10:53.371Z,22.06
2019-05-01T12:13:54.752Z,21.94
2019-05-01T12:17:14.886Z,22.00
2019-05-01T12:20:16.852Z,21.75
2019-05-01T12:23:18.227Z,21.87
2019-05-01T12:26:19.605Z,21.62
2019-05-01T12:29:20.993Z,21.81
2019-05-01T12:32:22.378Z,22.25
2019-05-01T12:35:23.754Z,21.75
2019-05-01T12:38:25.101Z,22.00
2019-05-01T12:41:44.649Z,21.94
2019-05-01T12:44:45.998Z,22.13
2019-05-01T12:47:58.981Z,21.81
2019-05-01T12:51:00.358Z,22.06
2019-05-01T12:54:10.720Z,21.94
2019-05-01T12:57:12.078Z,22.13
2019-05-01T13:00:15.861Z,22.13
2019-05-01T13:03:17.248Z,22.06
2019-05-01T13:06:18.621Z,21.87
2019-05-01T13:09:20.011Z,21.87
2019-05-01T13:12:21.373Z,22.31
2019-05-01T13:15:22.745Z,22.19
2019-05-01T13:18:24.125Z,21.81
2019-05-01T13:21:25.477Z,21.75
2019-05-01T13:24:26.854Z,21.75
2019-05-01T13:27:34.989Z,22.13
2019-05-01T13:30:49.578Z,22.13
2019-05-01T13:33:52.048Z,22.44
2019-05-01T13:37:02.874Z,21.75
2019-05-01T13:39:57.555Z,21.69
2019-05-01T13:42:58.903Z,21.75
2019-05-01T13:46:00.289Z,21.81
2019-05-01T13:49:01.623Z,22.06
2019-05-01T13:52:03.009Z,22.13
2019-05-01T13:55:04.870Z,22.19
2019-05-01T13:58:06.246Z,22.25
2019-05-01T14:01:07.695Z,22.00
2019-05-01T14:04:10.427Z,21.94
2019-05-01T14:07:16.708Z,21.50
2019-05-01T14:10:15.171Z,22.06
2019-05-01T14:13:16.548Z,22.06
2019-05-01T14:16:17.899Z,21.69
2019-05-01T14:19:19.360Z,21.87
2019-05-01T14:22:51.879Z,22.13
2019-05-01T14:26:06.393Z,22.19
2019-05-01T14:29:07.780Z,21.69
2019-05-01T14:32:09.147Z,22.06
2019-05-01T14:35:12.860Z,22.44
2019-05-01T14:38:14.225Z,22.81
2019-05-01T14:41:15.602Z,23.19
2019-05-01T14:44:16.971Z,23.69
2019-05-01T14:47:19.391Z,23.87
2019-05-01T14:50:20.772Z,24.19
2019-05-01T14:53:22.112Z,23.81
2019-05-01T14:56:23.484Z,24.06
2019-05-01T14:59:24.905Z,23.44
2019-05-01T15:02:26.299Z,23.38
2019-05-01T15:05:27.689Z,23.56
2019-05-01T15:08:29.045Z,23.69
2019-05-01T15:11:30.427Z,23.56
2019-05-01T15:14:54.800Z,23.87
2019-05-01T15:18:04.401Z,23.56
2019-05-01T15:21:05.857Z,23.00
2019-05-01T15:24:07.430Z,22.44
2019-05-01T15:27:08.820Z,23.06
2019-05-01T15:30:14.542Z,23.38
2019-05-01T15:33:15.915Z,23.75
2019-05-01T15:36:17.259Z,23.12
2019-05-01T15:39:28.508Z,23.25
2019-05-01T15:42:46.830Z,23.00
2019-05-01T15:45:48.184Z,22.75
2019-05-01T15:48:49.560Z,22.69
2019-05-01T15:51:50.906Z,23.00
2019-05-01T15:54:52.290Z,22.81
2019-05-01T15:57:53.662Z,22.75
2019-05-01T16:00:55.030Z,21.94
2019-05-01T16:03:56.399Z,21.50
2019-05-01T16:06:57.751Z,21.31
2019-05-01T16:09:59.185Z,21.50
2019-05-01T16:13:02.207Z,21.56
2019-05-01T16:16:03.713Z,21.37
2019-05-01T16:19:05.191Z,21.06
2019-05-01T16:22:06.675Z,20.81
2019-05-01T16:25:08.376Z,20.75
2019-05-01T16:28:09.734Z,20.69
2019-05-01T16:31:11.201Z,20.50
2019-05-01T16:34:13.725Z,20.44
2019-05-01T16:37:15.098Z,20.56
2019-05-01T16:40:34.049Z,20.62
2019-05-01T16:43:35.464Z,20.62
2019-05-01T16:46:36.975Z,20.69
2019-05-01T16:49:38.432Z,20.37
2019-05-01T16:52:40.700Z,20.37
2019-05-01T16:55:43.623Z,20.19
2019-05-01T16:58:45.040Z,20.00
2019-05-01T17:02:01.950Z,20.06
2019-05-01T17:05:31.276Z,20.12
2019-05-01T17:08:50.536Z,20.12
2019-05-01T17:11:51.922Z,19.94
2019-05-01T17:14:53.305Z,19.75
2019-05-01T17:17:54.644Z,19.56
2019-05-01T17:20:56.035Z,19.56
2019-05-01T17:23:57.391Z,19.44
2019-05-01T17:26:58.776Z,19.44
2019-05-01T17:30:00.209Z,19.37
2019-05-01T17:33:01.597Z,19.31
2019-05-01T17:36:02.991Z,19.06
2019-05-01T17:39:05.716Z,19.06
2019-05-01T17:42:08.836Z,18.87
2019-05-01T17:45:10.278Z,18.94
2019-05-01T17:48:11.784Z,18.94
2019-05-01T17:51:13.174Z,18.87
2019-05-01T17:54:14.537Z,18.62
2019-05-01T17:57:15.918Z,18.56
2019-05-01T18:00:36.502Z,18.44
2019-05-01T18:03:48.718Z,18.44
2019-05-01T18:06:50.992Z,18.31
2019-05-01T18:09:55.688Z,18.06
2019-05-01T18:12:55.413Z,17.94
2019-05-01T18:15:56.777Z,17.87
2019-05-01T18:18:58.209Z,17.69
2019-05-01T18:22:10.242Z,17.56
2019-05-01T18:25:28.104Z,17.44
2019-05-01T18:28:37.516Z,17.25
2019-05-01T18:31:39.916Z,17.06
2019-05-01T18:34:41.263Z,16.87
2019-05-01T18:37:49.083Z,16.69
2019-05-01T18:40:54.663Z,16.56
2019-05-01T18:43:56.045Z,16.44
2019-05-01T18:46:57.376Z,16.37
2019-05-01T18:49:58.847Z,16.19
2019-05-01T18:53:00.221Z,16.19
2019-05-01T18:56:05.517Z,16.00
2019-05-01T18:59:04.623Z,15.81
2019-05-01T19:02:06.178Z,15.94
2019-05-01T19:05:08.732Z,16.00
2019-05-01T19:08:11.054Z,15.56
2019-05-01T19:11:13.309Z,15.31
2019-05-01T19:14:15.948Z,15.00
2019-05-01T19:17:17.334Z,15.06
2019-05-01T19:20:18.796Z,15.13
2019-05-01T19:23:22.250Z,14.94
2019-05-01T19:26:23.742Z,14.87
2019-05-01T19:29:26.659Z,14.87
2019-05-01T19:32:28.313Z,15.19
2019-05-01T19:35:33.973Z,15.13
2019-05-01T19:38:34.801Z,15.25
2019-05-01T19:41:35.884Z,15.19
2019-05-01T19:44:37.378Z,15.06
2019-05-01T19:47:38.772Z,14.81
2019-05-01T19:50:47.946Z,14.81
2019-05-01T19:53:46.466Z,14.63
2019-05-01T19:56:46.689Z,14.69
2019-05-01T19:59:48.036Z,14.56
2019-05-01T20:02:49.389Z,14.38
2019-05-01T20:05:50.870Z,13.81
2019-05-01T20:08:52.330Z,14.06
2019-05-01T20:11:53.683Z,13.75
2019-05-01T20:14:55.134Z,13.88
2019-05-01T20:17:59.977Z,13.75
2019-05-01T20:21:01.354Z,13.44
2019-05-01T20:24:04.292Z,13.38
2019-05-01T20:27:06.299Z,13.13
2019-05-01T20:30:08.079Z,13.19
2019-05-01T20:33:09.518Z,12.94
2019-05-01T20:36:10.989Z,12.81
2019-05-01T20:39:12.484Z,12.94
2019-05-01T20:42:13.959Z,13.25
2019-05-01T20:45:18.344Z,13.31
2019-05-01T20:48:23.552Z,13.50
2019-05-01T20:51:21.783Z,13.50
2019-05-01T20:54:23.233Z,13.31
2019-05-01T20:57:29.807Z,12.94
2019-05-01T21:00:31.350Z,12.75
2019-05-01T21:03:33.136Z,12.88
2019-05-01T21:06:39.083Z,12.63
2019-05-01T21:09:47.593Z,12.37
2019-05-01T21:12:46.000Z,12.69
2019-05-01T21:15:47.588Z,12.69
2019-05-01T21:18:49.052Z,12.25
2019-05-01T21:21:50.562Z,12.13
2019-05-01T21:24:53.294Z,12.25
2019-05-01T21:27:54.741Z,12.56
2019-05-01T21:30:56.239Z,12.69
2019-05-01T21:33:57.647Z,12.50
2019-05-01T21:36:59.095Z,12.19
2019-05-01T21:40:02.598Z,12.19
2019-05-01T21:43:03.863Z,12.44
2019-05-01T21:46:06.365Z,12.13
2019-05-01T21:49:07.749Z,12.00
2019-05-01T21:52:09.169Z,12.00
2019-05-01T21:55:10.593Z,11.88
2019-05-01T21:58:12.005Z,12.19
2019-05-01T22:01:13.650Z,12.13
2019-05-01T22:04:15.144Z,11.94
2019-05-01T22:07:16.542Z,12.13
2019-05-01T22:10:21.610Z,11.63
2019-05-01T22:13:24.337Z,11.88
2019-05-01T22:16:27.492Z,11.88
2019-05-01T22:19:29.029Z,11.50
2019-05-01T22:22:45.959Z,11.12
2019-05-01T22:25:51.132Z,11.75
2019-05-01T22:28:56.129Z,11.88
2019-05-01T22:32:16.598Z,11.81
2019-05-01T22:35:23.636Z,11.75
2019-05-01T22:38:25.015Z,11.88
2019-05-01T22:41:26.372Z,12.00
2019-05-01T22:44:27.808Z,11.81
2019-05-01T22:47:30.107Z,11.81
2019-05-01T22:50:31.483Z,11.75
2019-05-01T22:53:32.868Z,11.06
2019-05-01T22:56:34.271Z,11.12
2019-05-01T22:59:35.637Z,11.63
2019-05-01T23:02:40.623Z,11.69
2019-05-01T23:05:42.065Z,11.69
2019-05-01T23:08:43.494Z,11.38
2019-05-01T23:11:47.252Z,11.44
2019-05-01T23:14:49.855Z,11.69
2019-05-01T23:17:51.488Z,11.63
2019-05-01T23:20:52.845Z,11.63
2019-05-01T23:23:56.983Z,11.44
2019-05-01T23:26:57.359Z,11.50
2019-05-01T23:29:58.704Z,11.31
2019-05-01T23:33:00.081Z,10.56
2019-05-01T23:36:01.541Z,10.81
2019-05-01T23:39:02.918Z,11.12
2019-05-01T23:42:05.239Z,11.19
2019-05-01T23:45:07.558Z,11.25
2019-05-01T23:48:08.952Z,11.19
2019-05-01T23:51:10.296Z,11.00
2019-05-01T23:54:11.661Z,11.12
2019-05-01T23:57:14.926Z,11.31
